ESTA

Ängelholm-Helsingborg Airport

Ängelholm, Sweden
METAR ESTA 110150Z AUTO 36014KT 9999 SCT019/// OVC100/// 03/00 Q1008
Observed Flight Rules
Dec-11 @ 01:50 UTC (35 minutes ago) Visual Flight Rules
Wind Visibility Clouds
360° at 14 knots 10,000+ meters
  • Scattered at 1,900' AGL
  • Overcast at 10,000' AGL
Temperatures Readings
Current 3°C / 37°F
Dewpoint 0°C / 32°F
Humidity 81%
Altimeter 29.76" Hg
Pressure 1008 hPa
Elevation 47
METAR ESTA 110150Z AUTO 36014KT 9999 SCT019/// OVC100/// 03/00 Q1008
Observed Flight Rules
Dec-11 @ 01:50 UTC
(35 minutes ago)
VFR
Wind Visibility
360° at 14 knots 10,000+ meters
Clouds
  • Scattered at 1,900' AGL
  • Overcast at 10,000' AGL
Temperature Dewpoint
3°C / 37°F 0°C / 32°F
Humidity Altimeter Pressure
81% 29.76" Hg 1008 hPa